sensor_id;sensor_type;location;lat;lon;timestamp;temperature;humidity
30411;DHT22;66159;48.722;7.632;2022-12-20T00:01:17;4.30;1.00
30411;DHT22;66159;48.722;7.632;2022-12-20T00:03:44;4.30;1.00
30411;DHT22;66159;48.722;7.632;2022-12-20T00:06:11;4.30;1.00
30411;DHT22;66159;48.722;7.632;2022-12-20T00:08:38;4.30;1.00
30411;DHT22;66159;48.722;7.632;2022-12-20T00:11:05;4.30;1.00
30411;DHT22;66159;48.722;7.632;2022-12-20T00:13:32;4.30;1.00
30411;DHT22;66159;48.722;7.632;2022-12-20T00:16:09;4.30;1.00
30411;DHT22;66159;48.722;7.632;2022-12-20T00:18:36;4.30;1.00
30411;DHT22;66159;48.722;7.632;2022-12-20T00:21:04;4.30;99.90
30411;DHT22;66159;48.722;7.632;2022-12-20T00:23:30;4.30;99.90
30411;DHT22;66159;48.722;7.632;2022-12-20T00:26:04;4.20;99.90
30411;DHT22;66159;48.722;7.632;2022-12-20T00:28:31;4.20;99.90
30411;DHT22;66159;48.722;7.632;2022-12-20T00:30:56;4.10;99.90
30411;DHT22;66159;48.722;7.632;2022-12-20T00:33:22;4.10;99.90
30411;DHT22;66159;48.722;7.632;2022-12-20T00:35:48;4.00;99.90
30411;DHT22;66159;48.722;7.632;2022-12-20T00:38:14;4.00;99.90
30411;DHT22;66159;48.722;7.632;2022-12-20T00:40:39;4.00;99.90
30411;DHT22;66159;48.722;7.632;2022-12-20T00:43:05;4.00;99.90
30411;DHT22;66159;48.722;7.632;2022-12-20T00:45:30;4.00;99.90
30411;DHT22;66159;48.722;7.632;2022-12-20T00:47:56;4.00;99.90
30411;DHT22;66159;48.722;7.632;2022-12-20T00:50:22;4.00;99.90
30411;DHT22;66159;48.722;7.632;2022-12-20T00:52:47;4.10;99.90
30411;DHT22;66159;48.722;7.632;2022-12-20T00:55:13;4.00;99.90
30411;DHT22;66159;48.722;7.632;2022-12-20T00:57:38;4.10;99.90
30411;DHT22;66159;48.722;7.632;2022-12-20T01:00:05;4.00;99.90
30411;DHT22;66159;48.722;7.632;2022-12-20T01:02:31;4.00;99.90
30411;DHT22;66159;48.722;7.632;2022-12-20T01:04:57;4.00;99.90
30411;DHT22;66159;48.722;7.632;2022-12-20T01:07:23;4.00;99.90
30411;DHT22;66159;48.722;7.632;2022-12-20T01:09:49;3.90;99.90
30411;DHT22;66159;48.722;7.632;2022-12-20T01:12:15;4.00;99.90
30411;DHT22;66159;48.722;7.632;2022-12-20T01:14:41;4.00;99.90
30411;DHT22;66159;48.722;7.632;2022-12-20T01:17:06;4.00;99.90
30411;DHT22;66159;48.722;7.632;2022-12-20T01:19:32;3.90;99.90
30411;DHT22;66159;48.722;7.632;2022-12-20T01:21:58;3.90;99.90
30411;DHT22;66159;48.722;7.632;2022-12-20T01:24:24;3.90;1.00
30411;DHT22;66159;48.722;7.632;2022-12-20T01:26:49;3.90;1.00
30411;DHT22;66159;48.722;7.632;2022-12-20T01:29:15;3.90;1.00
30411;DHT22;66159;48.722;7.632;2022-12-20T01:31:41;3.80;1.00
30411;DHT22;66159;48.722;7.632;2022-12-20T01:34:07;3.80;1.00
30411;DHT22;66159;48.722;7.632;2022-12-20T01:36:34;3.90;1.00
30411;DHT22;66159;48.722;7.632;2022-12-20T01:39:20;3.90;1.00
30411;DHT22;66159;48.722;7.632;2022-12-20T01:41:45;4.00;1.00
30411;DHT22;66159;48.722;7.632;2022-12-20T01:46:45;4.00;1.00
30411;DHT22;66159;48.722;7.632;2022-12-20T01:49:27;4.00;1.00
30411;DHT22;66159;48.722;7.632;2022-12-20T01:52:05;4.00;1.00
30411;DHT22;66159;48.722;7.632;2022-12-20T01:54:41;4.00;99.90
30411;DHT22;66159;48.722;7.632;2022-12-20T01:57:15;4.00;99.90
30411;DHT22;66159;48.722;7.632;2022-12-20T01:59:44;4.00;1.00
30411;DHT22;66159;48.722;7.632;2022-12-20T02:02:12;4.10;1.00
30411;DHT22;66159;48.722;7.632;2022-12-20T02:04:38;4.20;1.00
30411;DHT22;66159;48.722;7.632;2022-12-20T02:07:05;4.30;1.00
30411;DHT22;66159;48.722;7.632;2022-12-20T02:09:33;4.40;1.00
30411;DHT22;66159;48.722;7.632;2022-12-20T02:12:16;4.50;1.00
30411;DHT22;66159;48.722;7.632;2022-12-20T02:28:52;4.70;1.00
30411;DHT22;66159;48.722;7.632;2022-12-20T02:31:27;4.60;1.00
30411;DHT22;66159;48.722;7.632;2022-12-20T02:33:54;4.50;1.00
30411;DHT22;66159;48.722;7.632;2022-12-20T02:36:22;4.50;1.00
30411;DHT22;66159;48.722;7.632;2022-12-20T02:38:48;4.40;1.00
30411;DHT22;66159;48.722;7.632;2022-12-20T02:41:30;4.40;1.00
30411;DHT22;66159;48.722;7.632;2022-12-20T02:44:04;4.30;1.00
30411;DHT22;66159;48.722;7.632;2022-12-20T02:46:52;4.20;99.90
30411;DHT22;66159;48.722;7.632;2022-12-20T02:49:21;4.10;1.00
30411;DHT22;66159;48.722;7.632;2022-12-20T02:51:51;4.20;1.00
30411;DHT22;66159;48.722;7.632;2022-12-20T02:54:18;4.20;1.00
30411;DHT22;66159;48.722;7.632;2022-12-20T02:56:49;4.20;1.00
30411;DHT22;66159;48.722;7.632;2022-12-20T03:02:26;4.30;1.00
30411;DHT22;66159;48.722;7.632;2022-12-20T03:04:53;4.30;1.00
30411;DHT22;66159;48.722;7.632;2022-12-20T03:07:21;4.30;1.00
30411;DHT22;66159;48.722;7.632;2022-12-20T03:09:47;4.30;1.00
30411;DHT22;66159;48.722;7.632;2022-12-20T03:12:14;4.30;1.00
30411;DHT22;66159;48.722;7.632;2022-12-20T03:14:40;4.30;1.00
30411;DHT22;66159;48.722;7.632;2022-12-20T03:17:06;4.30;1.00
30411;DHT22;66159;48.722;7.632;2022-12-20T03:19:32;4.30;99.90
30411;DHT22;66159;48.722;7.632;2022-12-20T03:21:58;4.30;99.90
30411;DHT22;66159;48.722;7.632;2022-12-20T03:24:24;4.30;99.90
30411;DHT22;66159;48.722;7.632;2022-12-20T03:26:50;4.20;99.90
30411;DHT22;66159;48.722;7.632;2022-12-20T03:29:16;4.20;99.90
30411;DHT22;66159;48.722;7.632;2022-12-20T03:31:42;4.20;99.90
30411;DHT22;66159;48.722;7.632;2022-12-20T03:34:08;4.20;99.90
30411;DHT22;66159;48.722;7.632;2022-12-20T03:36:33;4.20;99.90
30411;DHT22;66159;48.722;7.632;2022-12-20T03:38:59;4.20;99.90
30411;DHT22;66159;48.722;7.632;2022-12-20T03:41:26;4.20;99.90
30411;DHT22;66159;48.722;7.632;2022-12-20T03:43:52;4.10;99.90
30411;DHT22;66159;48.722;7.632;2022-12-20T03:46:17;4.10;99.90
30411;DHT22;66159;48.722;7.632;2022-12-20T03:48:43;4.10;99.90
30411;DHT22;66159;48.722;7.632;2022-12-20T03:51:09;4.10;99.90
30411;DHT22;66159;48.722;7.632;2022-12-20T03:53:35;4.10;99.90
30411;DHT22;66159;48.722;7.632;2022-12-20T03:56:00;4.00;99.90
30411;DHT22;66159;48.722;7.632;2022-12-20T03:58:26;4.00;99.90
30411;DHT22;66159;48.722;7.632;2022-12-20T04:00:52;4.00;1.00
30411;DHT22;66159;48.722;7.632;2022-12-20T04:03:17;4.10;1.00
30411;DHT22;66159;48.722;7.632;2022-12-20T04:05:43;4.00;1.00
30411;DHT22;66159;48.722;7.632;2022-12-20T04:08:09;4.00;99.90
30411;DHT22;66159;48.722;7.632;2022-12-20T04:10:34;4.00;1.00
30411;DHT22;66159;48.722;7.632;2022-12-20T04:13:23;4.00;1.00
30411;DHT22;66159;48.722;7.632;2022-12-20T04:15:48;4.00;99.90
30411;DHT22;66159;48.722;7.632;2022-12-20T04:18:14;4.00;1.00
30411;DHT22;66159;48.722;7.632;2022-12-20T04:20:39;4.00;1.00
30411;DHT22;66159;48.722;7.632;2022-12-20T04:23:05;4.00;1.00
30411;DHT22;66159;48.722;7.632;2022-12-20T04:25:31;4.00;1.00
30411;DHT22;66159;48.722;7.632;2022-12-20T04:27:56;4.10;1.00
30411;DHT22;66159;48.722;7.632;2022-12-20T04:30:22;4.10;1.00
30411;DHT22;66159;48.722;7.632;2022-12-20T04:32:47;4.10;1.00
30411;DHT22;66159;48.722;7.632;2022-12-20T04:35:13;4.20;1.00
30411;DHT22;66159;48.722;7.632;2022-12-20T04:37:39;4.20;1.00
30411;DHT22;66159;48.722;7.632;2022-12-20T04:40:05;4.20;1.00
30411;DHT22;66159;48.722;7.632;2022-12-20T04:42:31;4.20;1.00
30411;DHT22;66159;48.722;7.632;2022-12-20T04:44:56;4.30;1.00
30411;DHT22;66159;48.722;7.632;2022-12-20T04:47:22;4.30;1.00
30411;DHT22;66159;48.722;7.632;2022-12-20T04:49:48;4.30;99.90
30411;DHT22;66159;48.722;7.632;2022-12-20T04:52:13;4.30;99.90
30411;DHT22;66159;48.722;7.632;2022-12-20T04:55:02;4.30;99.90
30411;DHT22;66159;48.722;7.632;2022-12-20T04:57:27;4.30;99.90
30411;DHT22;66159;48.722;7.632;2022-12-20T04:59:53;4.30;99.90
30411;DHT22;66159;48.722;7.632;2022-12-20T05:02:19;4.20;99.90
30411;DHT22;66159;48.722;7.632;2022-12-20T05:04:44;4.20;99.90
30411;DHT22;66159;48.722;7.632;2022-12-20T05:07:10;4.20;99.90
30411;DHT22;66159;48.722;7.632;2022-12-20T05:09:35;4.20;99.90
30411;DHT22;66159;48.722;7.632;2022-12-20T05:12:01;4.20;99.90
30411;DHT22;66159;48.722;7.632;2022-12-20T05:14:27;4.20;99.90
30411;DHT22;66159;48.722;7.632;2022-12-20T05:16:52;4.20;99.90
30411;DHT22;66159;48.722;7.632;2022-12-20T05:19:18;4.10;99.90
30411;DHT22;66159;48.722;7.632;2022-12-20T05:21:43;4.10;99.90
30411;DHT22;66159;48.722;7.632;2022-12-20T05:24:28;4.00;99.90
30411;DHT22;66159;48.722;7.632;2022-12-20T05:27:11;4.00;1.00
30411;DHT22;66159;48.722;7.632;2022-12-20T05:29:37;4.00;1.00
30411;DHT22;66159;48.722;7.632;2022-12-20T05:32:03;3.90;1.00
30411;DHT22;66159;48.722;7.632;2022-12-20T05:34:28;3.90;1.00
30411;DHT22;66159;48.722;7.632;2022-12-20T05:36:55;3.90;1.00
30411;DHT22;66159;48.722;7.632;2022-12-20T05:39:20;3.80;1.00
30411;DHT22;66159;48.722;7.632;2022-12-20T05:41:46;3.80;1.00
30411;DHT22;66159;48.722;7.632;2022-12-20T05:44:11;3.80;1.00
30411;DHT22;66159;48.722;7.632;2022-12-20T05:46:37;3.90;1.00
30411;DHT22;66159;48.722;7.632;2022-12-20T05:49:03;4.00;1.00
30411;DHT22;66159;48.722;7.632;2022-12-20T05:51:28;4.10;1.00
30411;DHT22;66159;48.722;7.632;2022-12-20T05:53:54;4.20;1.00
30411;DHT22;66159;48.722;7.632;2022-12-20T05:56:19;4.20;1.00
30411;DHT22;66159;48.722;7.632;2022-12-20T05:58:45;4.30;1.00
30411;DHT22;66159;48.722;7.632;2022-12-20T06:01:11;4.30;99.90
30411;DHT22;66159;48.722;7.632;2022-12-20T06:03:38;4.40;99.90
30411;DHT22;66159;48.722;7.632;2022-12-20T06:06:05;4.40;99.90
30411;DHT22;66159;48.722;7.632;2022-12-20T06:08:30;4.40;99.90
30411;DHT22;66159;48.722;7.632;2022-12-20T06:10:56;4.40;99.90
30411;DHT22;66159;48.722;7.632;2022-12-20T06:13:22;4.50;99.90
30411;DHT22;66159;48.722;7.632;2022-12-20T06:15:48;4.50;99.90
30411;DHT22;66159;48.722;7.632;2022-12-20T06:18:13;4.50;99.90
30411;DHT22;66159;48.722;7.632;2022-12-20T06:20:39;4.50;99.90
30411;DHT22;66159;48.722;7.632;2022-12-20T06:23:04;4.50;99.90
30411;DHT22;66159;48.722;7.632;2022-12-20T06:25:30;4.50;99.90
30411;DHT22;66159;48.722;7.632;2022-12-20T06:27:56;4.50;99.90
30411;DHT22;66159;48.722;7.632;2022-12-20T06:30:22;4.50;99.90
30411;DHT22;66159;48.722;7.632;2022-12-20T06:32:48;4.50;99.90
30411;DHT22;66159;48.722;7.632;2022-12-20T06:35:14;4.50;99.90
30411;DHT22;66159;48.722;7.632;2022-12-20T06:37:40;4.40;1.00
30411;DHT22;66159;48.722;7.632;2022-12-20T06:40:08;4.40;1.00
30411;DHT22;66159;48.722;7.632;2022-12-20T06:42:34;4.40;1.00
30411;DHT22;66159;48.722;7.632;2022-12-20T06:44:59;4.40;99.90
30411;DHT22;66159;48.722;7.632;2022-12-20T06:47:25;4.30;99.90
30411;DHT22;66159;48.722;7.632;2022-12-20T06:49:51;4.20;99.90
30411;DHT22;66159;48.722;7.632;2022-12-20T06:52:16;4.20;99.90
30411;DHT22;66159;48.722;7.632;2022-12-20T06:54:42;4.10;99.90
30411;DHT22;66159;48.722;7.632;2022-12-20T06:57:08;4.00;99.90
30411;DHT22;66159;48.722;7.632;2022-12-20T06:59:33;4.00;99.90
30411;DHT22;66159;48.722;7.632;2022-12-20T07:01:59;4.00;99.90
30411;DHT22;66159;48.722;7.632;2022-12-20T07:04:25;4.10;99.90
30411;DHT22;66159;48.722;7.632;2022-12-20T07:06:51;4.10;99.90
30411;DHT22;66159;48.722;7.632;2022-12-20T07:09:16;4.20;1.00
30411;DHT22;66159;48.722;7.632;2022-12-20T07:11:42;4.20;1.00
30411;DHT22;66159;48.722;7.632;2022-12-20T07:14:08;4.20;1.00
30411;DHT22;66159;48.722;7.632;2022-12-20T07:16:35;4.20;1.00
30411;DHT22;66159;48.722;7.632;2022-12-20T07:19:01;4.30;1.00
30411;DHT22;66159;48.722;7.632;2022-12-20T07:21:27;4.30;1.00
30411;DHT22;66159;48.722;7.632;2022-12-20T07:23:54;4.30;1.00
30411;DHT22;66159;48.722;7.632;2022-12-20T07:26:20;4.40;1.00
30411;DHT22;66159;48.722;7.632;2022-12-20T07:28:46;4.40;1.00
30411;DHT22;66159;48.722;7.632;2022-12-20T07:31:11;4.50;1.00
30411;DHT22;66159;48.722;7.632;2022-12-20T07:33:37;4.60;1.00
30411;DHT22;66159;48.722;7.632;2022-12-20T07:36:09;4.70;1.00
30411;DHT22;66159;48.722;7.632;2022-12-20T07:38:34;4.80;1.00
30411;DHT22;66159;48.722;7.632;2022-12-20T07:41:10;4.80;1.00
30411;DHT22;66159;48.722;7.632;2022-12-20T07:43:36;4.90;1.00
30411;DHT22;66159;48.722;7.632;2022-12-20T07:46:03;5.00;1.00
30411;DHT22;66159;48.722;7.632;2022-12-20T07:48:29;5.10;1.00
30411;DHT22;66159;48.722;7.632;2022-12-20T07:51:00;5.20;1.00
30411;DHT22;66159;48.722;7.632;2022-12-20T07:53:27;5.20;1.00
30411;DHT22;66159;48.722;7.632;2022-12-20T07:55:55;5.10;1.00
30411;DHT22;66159;48.722;7.632;2022-12-20T07:58:21;5.10;1.00
30411;DHT22;66159;48.722;7.632;2022-12-20T08:00:47;5.00;99.90
30411;DHT22;66159;48.722;7.632;2022-12-20T08:03:21;5.00;99.90
30411;DHT22;66159;48.722;7.632;2022-12-20T08:05:50;4.90;99.90
30411;DHT22;66159;48.722;7.632;2022-12-20T08:08:19;4.80;99.90
30411;DHT22;66159;48.722;7.632;2022-12-20T08:10:46;4.80;1.00
30411;DHT22;66159;48.722;7.632;2022-12-20T08:13:12;4.80;1.00
30411;DHT22;66159;48.722;7.632;2022-12-20T08:15:38;4.90;1.00
30411;DHT22;66159;48.722;7.632;2022-12-20T08:18:04;4.90;1.00
30411;DHT22;66159;48.722;7.632;2022-12-20T08:20:31;4.90;1.00
30411;DHT22;66159;48.722;7.632;2022-12-20T08:22:57;4.90;1.00
30411;DHT22;66159;48.722;7.632;2022-12-20T08:25:23;4.90;1.00
30411;DHT22;66159;48.722;7.632;2022-12-20T08:27:49;5.00;1.00
30411;DHT22;66159;48.722;7.632;2022-12-20T08:30:14;5.00;1.00
30411;DHT22;66159;48.722;7.632;2022-12-20T08:32:40;5.00;1.00
30411;DHT22;66159;48.722;7.632;2022-12-20T08:35:06;4.90;1.00
30411;DHT22;66159;48.722;7.632;2022-12-20T08:37:32;5.00;1.00
30411;DHT22;66159;48.722;7.632;2022-12-20T08:39:58;5.00;1.00
30411;DHT22;66159;48.722;7.632;2022-12-20T08:42:25;5.00;1.00
30411;DHT22;66159;48.722;7.632;2022-12-20T08:44:51;5.00;1.00
30411;DHT22;66159;48.722;7.632;2022-12-20T08:47:16;5.00;1.00
30411;DHT22;66159;48.722;7.632;2022-12-20T08:49:42;5.10;1.00
30411;DHT22;66159;48.722;7.632;2022-12-20T08:52:08;5.10;1.00
30411;DHT22;66159;48.722;7.632;2022-12-20T08:54:33;5.20;1.00
30411;DHT22;66159;48.722;7.632;2022-12-20T08:56:59;5.20;1.00
30411;DHT22;66159;48.722;7.632;2022-12-20T08:59:25;5.30;1.00
30411;DHT22;66159;48.722;7.632;2022-12-20T09:01:51;5.30;1.00
30411;DHT22;66159;48.722;7.632;2022-12-20T09:04:18;5.40;99.90
30411;DHT22;66159;48.722;7.632;2022-12-20T09:06:44;5.40;99.90
30411;DHT22;66159;48.722;7.632;2022-12-20T09:09:10;5.40;99.90
30411;DHT22;66159;48.722;7.632;2022-12-20T09:11:36;5.40;99.90
30411;DHT22;66159;48.722;7.632;2022-12-20T09:14:01;5.50;99.90
30411;DHT22;66159;48.722;7.632;2022-12-20T09:16:30;5.50;99.90
30411;DHT22;66159;48.722;7.632;2022-12-20T09:18:58;5.60;99.90
30411;DHT22;66159;48.722;7.632;2022-12-20T09:21:24;5.60;99.90
30411;DHT22;66159;48.722;7.632;2022-12-20T09:23:51;5.70;99.90
30411;DHT22;66159;48.722;7.632;2022-12-20T09:26:17;5.80;99.90
30411;DHT22;66159;48.722;7.632;2022-12-20T09:28:44;5.80;99.90
30411;DHT22;66159;48.722;7.632;2022-12-20T09:31:15;5.90;99.90
30411;DHT22;66159;48.722;7.632;2022-12-20T09:33:41;6.00;99.90
30411;DHT22;66159;48.722;7.632;2022-12-20T09:36:15;6.10;99.90
30411;DHT22;66159;48.722;7.632;2022-12-20T09:38:45;6.10;99.90
30411;DHT22;66159;48.722;7.632;2022-12-20T09:43:49;6.20;99.90
30411;DHT22;66159;48.722;7.632;2022-12-20T09:46:15;6.30;99.90
30411;DHT22;66159;48.722;7.632;2022-12-20T09:48:42;6.30;99.90
30411;DHT22;66159;48.722;7.632;2022-12-20T09:56:34;6.80;99.90
30411;DHT22;66159;48.722;7.632;2022-12-20T09:59:12;6.90;99.90
30411;DHT22;66159;48.722;7.632;2022-12-20T10:01:38;6.90;99.90
30411;DHT22;66159;48.722;7.632;2022-12-20T10:04:19;6.90;99.90
30411;DHT22;66159;48.722;7.632;2022-12-20T10:12:24;6.70;99.90
30411;DHT22;66159;48.722;7.632;2022-12-20T10:15:31;6.70;99.90
30411;DHT22;66159;48.722;7.632;2022-12-20T10:20:53;6.60;99.90
30411;DHT22;66159;48.722;7.632;2022-12-20T10:23:36;6.60;99.90
30411;DHT22;66159;48.722;7.632;2022-12-20T10:26:08;6.50;99.90
30411;DHT22;66159;48.722;7.632;2022-12-20T10:28:35;6.50;99.90
30411;DHT22;66159;48.722;7.632;2022-12-20T10:31:04;6.50;99.90
30411;DHT22;66159;48.722;7.632;2022-12-20T10:33:31;6.50;99.90
30411;DHT22;66159;48.722;7.632;2022-12-20T10:38:50;6.40;99.90
30411;DHT22;66159;48.722;7.632;2022-12-20T10:41:59;6.40;99.90
30411;DHT22;66159;48.722;7.632;2022-12-20T10:44:35;6.40;99.90
30411;DHT22;66159;48.722;7.632;2022-12-20T10:47:01;6.30;99.90
30411;DHT22;66159;48.722;7.632;2022-12-20T10:49:35;6.30;99.90
30411;DHT22;66159;48.722;7.632;2022-12-20T10:52:11;6.30;99.90
30411;DHT22;66159;48.722;7.632;2022-12-20T10:57:24;6.50;99.90
30411;DHT22;66159;48.722;7.632;2022-12-20T10:59:54;6.50;99.90
30411;DHT22;66159;48.722;7.632;2022-12-20T11:02:29;6.60;99.90
30411;DHT22;66159;48.722;7.632;2022-12-20T11:08:06;6.80;99.90
30411;DHT22;66159;48.722;7.632;2022-12-20T11:10:32;6.80;99.90
30411;DHT22;66159;48.722;7.632;2022-12-20T11:12:59;6.90;99.90
30411;DHT22;66159;48.722;7.632;2022-12-20T11:15:30;7.00;99.90
30411;DHT22;66159;48.722;7.632;2022-12-20T11:18:12;7.00;99.90
30411;DHT22;66159;48.722;7.632;2022-12-20T11:23:43;7.10;99.90
30411;DHT22;66159;48.722;7.632;2022-12-20T11:37:27;7.80;99.90
30411;DHT22;66159;48.722;7.632;2022-12-20T11:56:01;8.00;99.90
30411;DHT22;66159;48.722;7.632;2022-12-20T11:58:54;8.00;99.90
30411;DHT22;66159;48.722;7.632;2022-12-20T12:01:28;8.00;99.90
30411;DHT22;66159;48.722;7.632;2022-12-20T12:04:20;8.10;99.90
30411;DHT22;66159;48.722;7.632;2022-12-20T12:07:08;8.10;99.90
30411;DHT22;66159;48.722;7.632;2022-12-20T12:09:48;8.00;99.90
30411;DHT22;66159;48.722;7.632;2022-12-20T12:12:36;8.10;99.90
30411;DHT22;66159;48.722;7.632;2022-12-20T12:15:37;8.00;99.90
30411;DHT22;66159;48.722;7.632;2022-12-20T12:18:12;7.90;99.90
30411;DHT22;66159;48.722;7.632;2022-12-20T12:23:21;7.80;99.90
30411;DHT22;66159;48.722;7.632;2022-12-20T12:25:48;7.90;99.90
30411;DHT22;66159;48.722;7.632;2022-12-20T12:28:17;8.00;99.90
30411;DHT22;66159;48.722;7.632;2022-12-20T12:30:48;8.00;99.90
30411;DHT22;66159;48.722;7.632;2022-12-20T12:33:25;8.00;99.90
30411;DHT22;66159;48.722;7.632;2022-12-20T12:36:01;8.00;99.90
30411;DHT22;66159;48.722;7.632;2022-12-20T12:44:32;8.20;99.90
30411;DHT22;66159;48.722;7.632;2022-12-20T12:47:04;8.10;99.90
30411;DHT22;66159;48.722;7.632;2022-12-20T12:49:31;8.10;99.90
30411;DHT22;66159;48.722;7.632;2022-12-20T12:52:02;8.00;99.90
30411;DHT22;66159;48.722;7.632;2022-12-20T12:54:37;8.10;99.90
30411;DHT22;66159;48.722;7.632;2022-12-20T12:57:17;8.00;99.90
30411;DHT22;66159;48.722;7.632;2022-12-20T12:59:48;8.00;99.90
30411;DHT22;66159;48.722;7.632;2022-12-20T13:04:58;8.00;99.90
30411;DHT22;66159;48.722;7.632;2022-12-20T13:10:01;8.00;99.90
30411;DHT22;66159;48.722;7.632;2022-12-20T13:17:52;8.20;99.90
30411;DHT22;66159;48.722;7.632;2022-12-20T13:20:29;8.20;99.90
30411;DHT22;66159;48.722;7.632;2022-12-20T13:25:49;8.40;99.90
30411;DHT22;66159;48.722;7.632;2022-12-20T13:43:47;8.60;87.10
30411;DHT22;66159;48.722;7.632;2022-12-20T13:46:20;8.50;99.70
30411;DHT22;66159;48.722;7.632;2022-12-20T13:51:38;8.40;99.90
30411;DHT22;66159;48.722;7.632;2022-12-20T13:54:06;8.20;99.90
30411;DHT22;66159;48.722;7.632;2022-12-20T13:56:34;8.10;99.90
30411;DHT22;66159;48.722;7.632;2022-12-20T13:59:21;8.00;99.90
30411;DHT22;66159;48.722;7.632;2022-12-20T14:01:50;8.00;99.90
30411;DHT22;66159;48.722;7.632;2022-12-20T14:04:18;8.00;99.90
30411;DHT22;66159;48.722;7.632;2022-12-20T14:06:58;8.00;99.90
30411;DHT22;66159;48.722;7.632;2022-12-20T14:09:27;7.90;99.90
30411;DHT22;66159;48.722;7.632;2022-12-20T14:11:54;7.90;99.90
30411;DHT22;66159;48.722;7.632;2022-12-20T14:14:19;7.90;99.90
30411;DHT22;66159;48.722;7.632;2022-12-20T14:16:45;7.90;99.90
30411;DHT22;66159;48.722;7.632;2022-12-20T14:19:14;7.80;99.90
30411;DHT22;66159;48.722;7.632;2022-12-20T14:21:44;7.80;99.90
30411;DHT22;66159;48.722;7.632;2022-12-20T14:24:18;7.70;99.90
30411;DHT22;66159;48.722;7.632;2022-12-20T14:26:46;7.60;99.90
30411;DHT22;66159;48.722;7.632;2022-12-20T14:29:26;7.60;99.90
30411;DHT22;66159;48.722;7.632;2022-12-20T14:31:52;7.70;99.90
30411;DHT22;66159;48.722;7.632;2022-12-20T14:34:24;7.70;99.90
30411;DHT22;66159;48.722;7.632;2022-12-20T14:36:50;7.70;99.90
30411;DHT22;66159;48.722;7.632;2022-12-20T14:41:57;7.70;99.90
30411;DHT22;66159;48.722;7.632;2022-12-20T14:44:25;7.70;99.90
30411;DHT22;66159;48.722;7.632;2022-12-20T14:46:53;7.70;99.90
30411;DHT22;66159;48.722;7.632;2022-12-20T14:49:32;7.60;99.90
30411;DHT22;66159;48.722;7.632;2022-12-20T14:57:22;7.40;99.90
30411;DHT22;66159;48.722;7.632;2022-12-20T14:59:58;7.30;99.90
30411;DHT22;66159;48.722;7.632;2022-12-20T15:02:39;7.30;99.90
30411;DHT22;66159;48.722;7.632;2022-12-20T15:13:18;7.00;99.90
30411;DHT22;66159;48.722;7.632;2022-12-20T15:15:44;7.00;99.90
30411;DHT22;66159;48.722;7.632;2022-12-20T15:18:15;7.00;99.90
30411;DHT22;66159;48.722;7.632;2022-12-20T15:20:42;6.90;99.90
30411;DHT22;66159;48.722;7.632;2022-12-20T15:23:13;6.90;99.90
30411;DHT22;66159;48.722;7.632;2022-12-20T15:25:39;6.70;99.90
30411;DHT22;66159;48.722;7.632;2022-12-20T15:28:23;6.60;99.90
30411;DHT22;66159;48.722;7.632;2022-12-20T15:30:49;6.50;99.90
30411;DHT22;66159;48.722;7.632;2022-12-20T15:33:28;6.50;99.90
30411;DHT22;66159;48.722;7.632;2022-12-20T15:35:55;6.40;99.90
30411;DHT22;66159;48.722;7.632;2022-12-20T15:38:23;6.30;99.90
30411;DHT22;66159;48.722;7.632;2022-12-20T15:40:53;6.30;99.90
30411;DHT22;66159;48.722;7.632;2022-12-20T15:43:20;6.30;99.90
30411;DHT22;66159;48.722;7.632;2022-12-20T15:45:49;6.40;99.90
30411;DHT22;66159;48.722;7.632;2022-12-20T15:48:18;6.50;99.90
30411;DHT22;66159;48.722;7.632;2022-12-20T15:50:50;6.40;99.90
30411;DHT22;66159;48.722;7.632;2022-12-20T15:53:18;6.40;99.90
30411;DHT22;66159;48.722;7.632;2022-12-20T15:55:47;6.50;99.90
30411;DHT22;66159;48.722;7.632;2022-12-20T15:58:13;6.60;99.90
30411;DHT22;66159;48.722;7.632;2022-12-20T16:00:39;6.60;99.90
30411;DHT22;66159;48.722;7.632;2022-12-20T16:03:23;6.70;99.90
30411;DHT22;66159;48.722;7.632;2022-12-20T16:05:50;6.80;99.90
30411;DHT22;66159;48.722;7.632;2022-12-20T16:08:16;6.90;99.90
30411;DHT22;66159;48.722;7.632;2022-12-20T16:10:46;7.00;99.90
30411;DHT22;66159;48.722;7.632;2022-12-20T16:13:19;7.00;99.90
30411;DHT22;66159;48.722;7.632;2022-12-20T16:15:45;6.90;99.90
30411;DHT22;66159;48.722;7.632;2022-12-20T16:18:11;6.90;99.90
30411;DHT22;66159;48.722;7.632;2022-12-20T16:20:36;7.00;99.90
30411;DHT22;66159;48.722;7.632;2022-12-20T16:23:03;7.00;99.90
30411;DHT22;66159;48.722;7.632;2022-12-20T16:25:32;7.00;99.90
30411;DHT22;66159;48.722;7.632;2022-12-20T16:27:58;7.10;99.90
30411;DHT22;66159;48.722;7.632;2022-12-20T16:30:24;7.20;99.90
30411;DHT22;66159;48.722;7.632;2022-12-20T16:32:50;7.20;99.90
30411;DHT22;66159;48.722;7.632;2022-12-20T16:35:27;7.20;99.90
30411;DHT22;66159;48.722;7.632;2022-12-20T16:37:54;7.20;99.90
30411;DHT22;66159;48.722;7.632;2022-12-20T16:40:22;7.20;99.90
30411;DHT22;66159;48.722;7.632;2022-12-20T16:42:48;7.20;99.90
30411;DHT22;66159;48.722;7.632;2022-12-20T16:45:16;7.10;99.90
30411;DHT22;66159;48.722;7.632;2022-12-20T16:47:44;7.10;99.90
30411;DHT22;66159;48.722;7.632;2022-12-20T16:50:09;7.00;99.90
30411;DHT22;66159;48.722;7.632;2022-12-20T16:52:35;7.00;99.90
30411;DHT22;66159;48.722;7.632;2022-12-20T16:55:02;6.90;99.90
30411;DHT22;66159;48.722;7.632;2022-12-20T16:57:28;6.90;99.90
30411;DHT22;66159;48.722;7.632;2022-12-20T16:59:54;6.80;99.90
30411;DHT22;66159;48.722;7.632;2022-12-20T17:02:32;6.70;99.90
30411;DHT22;66159;48.722;7.632;2022-12-20T17:04:58;6.60;99.90
30411;DHT22;66159;48.722;7.632;2022-12-20T17:07:24;6.60;99.90
30411;DHT22;66159;48.722;7.632;2022-12-20T17:09:50;6.50;99.90
30411;DHT22;66159;48.722;7.632;2022-12-20T17:12:21;6.60;99.90
30411;DHT22;66159;48.722;7.632;2022-12-20T17:14:47;6.60;99.90
30411;DHT22;66159;48.722;7.632;2022-12-20T17:17:13;6.50;99.90
30411;DHT22;66159;48.722;7.632;2022-12-20T17:19:39;6.50;99.90
30411;DHT22;66159;48.722;7.632;2022-12-20T17:22:06;6.50;99.90
30411;DHT22;66159;48.722;7.632;2022-12-20T17:24:32;6.40;99.90
30411;DHT22;66159;48.722;7.632;2022-12-20T17:26:58;6.40;99.90
30411;DHT22;66159;48.722;7.632;2022-12-20T17:29:24;6.30;99.90
30411;DHT22;66159;48.722;7.632;2022-12-20T17:31:50;6.40;99.90
30411;DHT22;66159;48.722;7.632;2022-12-20T17:34:24;6.40;99.90
30411;DHT22;66159;48.722;7.632;2022-12-20T17:36:52;6.40;99.90
30411;DHT22;66159;48.722;7.632;2022-12-20T17:39:19;6.40;99.90
30411;DHT22;66159;48.722;7.632;2022-12-20T17:41:45;6.40;99.90
30411;DHT22;66159;48.722;7.632;2022-12-20T17:44:19;6.30;99.90
30411;DHT22;66159;48.722;7.632;2022-12-20T17:46:46;6.30;99.90
30411;DHT22;66159;48.722;7.632;2022-12-20T17:49:12;6.20;99.90
30411;DHT22;66159;48.722;7.632;2022-12-20T17:54:21;6.30;99.90
30411;DHT22;66159;48.722;7.632;2022-12-20T17:59:22;6.30;99.90
30411;DHT22;66159;48.722;7.632;2022-12-20T18:01:50;6.20;99.90
30411;DHT22;66159;48.722;7.632;2022-12-20T18:04:16;6.20;99.90
30411;DHT22;66159;48.722;7.632;2022-12-20T18:06:43;6.20;99.90
30411;DHT22;66159;48.722;7.632;2022-12-20T18:12:31;6.20;99.90
30411;DHT22;66159;48.722;7.632;2022-12-20T18:18:18;6.40;99.90
30411;DHT22;66159;48.722;7.632;2022-12-20T18:20:44;6.50;99.90
30411;DHT22;66159;48.722;7.632;2022-12-20T18:23:09;6.60;99.90